Sims Road Atmospheric Data: 03/22/2019 Summary  Detailed Graphs  Station List

  Temperature     Wind Precipitation Visibility
Timestamp Air Wet
Bulb
Dew-
point
24-hr
Max
24-hr
Min
Relative
Humidity
Atmospheric
Pressure
Avg
Speed
Avg
Dir
Spot
Speed
Spot
Dir
Max
Speed
Max
Dir
  Rate Situation Start End 1 hr 3 hr 6 hr 12 hr 24 hr   Situation
Date Time °F °F °F °F °F % in Hg mph ° mph ° mph ° Y/N in/hr text Date Time Date Time in in in in in mi text
03/22/2019 12:05 AM 39.38 38.48 37.40 63.50 37.58 92.0 Not Reported 0.89 N 1.12 N 1.12 NW No 0.000 No Precipitation 03/20/2019 08:29 PM 03/20/2019 08:34 PM 0.000 0.000 0.000 0.000 0.000 Not Reported Not Reported
03/22/2019 12:20 AM 39.02 38.12 37.04 63.50 37.58 92.0 Not Reported 0.00 N 0.00 NE 0.89 N No 0.000 No Precipitation 03/20/2019 08:29 PM 03/20/2019 08:34 PM 0.000 0.000 0.000 0.000 0.000 Not Reported Not Reported
03/22/2019 12:35 AM 39.02 37.94 37.04 63.50 37.58 92.0 Not Reported 0.00 N 0.89 N 0.89 SW No 0.000 No Precipitation 03/20/2019 08:29 PM 03/20/2019 08:34 PM 0.000 0.000 0.000 0.000 0.000 Not Reported Not Reported
03/22/2019 12:50 AM 38.66 37.76 36.68 63.50 37.58 92.0 Not Reported 0.00 N 0.22 N 1.34 N No 0.000 No Precipitation 03/20/2019 08:29 PM 03/20/2019 08:34 PM 0.000 0.000 0.000 0.000 0.000 Not Reported Not Reported
03/22/2019 01:05 AM 38.48 37.76 36.68 63.50 37.58 92.0 Not Reported 0.00 N 0.00 N 0.89 S No 0.000 No Precipitation 03/20/2019 08:29 PM 03/20/2019 08:34 PM 0.000 0.000 0.000 0.000 0.000 Not Reported Not Reported
03/22/2019 01:20 AM 38.66 37.76 36.68 63.50 37.58 92.0 Not Reported 0.00 NE 0.00 NE 0.67 NW No 0.000 No Precipitation 03/20/2019 08:29 PM 03/20/2019 08:34 PM 0.000 0.000 0.000 0.000 0.000 Not Reported Not Reported
03/22/2019 01:35 AM 38.84 37.94 37.04 63.50 37.58 92.0 Not Reported 0.22 N 0.00 NE 1.34 W No 0.000 No Precipitation 03/20/2019 08:29 PM 03/20/2019 08:34 PM 0.000 0.000 0.000 0.000 0.000 Not Reported Not Reported
03/22/2019 01:50 AM 39.02 38.12 37.22 63.50 37.58 92.0 Not Reported 0.67 N 0.89 N 0.89 N No 0.000 No Precipitation 03/20/2019 08:29 PM 03/20/2019 08:34 PM 0.000 0.000 0.000 0.000 0.000 Not Reported Not Reported
03/22/2019 02:05 AM 39.20 38.48 37.40 63.50 37.58 92.0 Not Reported 0.00 N 0.00 N 1.34 N No 0.000 No Precipitation 03/20/2019 08:29 PM 03/20/2019 08:34 PM 0.000 0.000 0.000 0.000 0.000 Not Reported Not Reported
03/22/2019 02:20 AM 39.20 38.30 37.22 63.50 37.58 92.0 Not Reported 0.00 N 0.00 NE 0.45 N No 0.000 No Precipitation 03/20/2019 08:29 PM 03/20/2019 08:34 PM 0.000 0.000 0.000 0.000 0.000 Not Reported Not Reported
03/22/2019 02:35 AM 39.38 38.48 37.40 63.50 37.58 92.0 Not Reported 0.00 NE 0.22 NE 2.01 N No 0.000 No Precipitation 03/20/2019 08:29 PM 03/20/2019 08:34 PM 0.000 0.000 0.000 0.000 0.000 Not Reported Not Reported
03/22/2019 02:50 AM 39.38 38.48 37.40 63.50 37.58 92.0 Not Reported 0.67 E 0.89 E 2.46 NE No 0.000 No Precipitation 03/20/2019 08:29 PM 03/20/2019 08:34 PM 0.000 0.000 0.000 0.000 0.000 Not Reported Not Reported
03/22/2019 03:05 AM 39.74 38.84 37.76 63.50 37.58 92.0 Not Reported 0.45 NE 0.45 N 1.79 N No 0.000 No Precipitation 03/20/2019 08:29 PM 03/20/2019 08:34 PM 0.000 0.000 0.000 0.000 0.000 Not Reported Not Reported
03/22/2019 03:20 AM 39.92 38.84 37.76 63.50 37.58 91.0 Not Reported 0.22 NE 0.00 NE 1.34 NE No 0.000 No Precipitation 03/20/2019 08:29 PM 03/20/2019 08:34 PM 0.000 0.000 0.000 0.000 0.000 Not Reported Not Reported
03/22/2019 03:35 AM 39.92 38.84 37.58 63.50 37.58 91.0 Not Reported 0.45 N 0.00 SE 1.57 NE No 0.000 No Precipitation 03/20/2019 08:29 PM 03/20/2019 08:34 PM 0.000 0.000 0.000 0.000 0.000 Not Reported Not Reported
03/22/2019 03:50 AM 39.92 38.84 37.40 63.50 37.58 90.0 Not Reported 0.22 E 0.45 E 1.12 NW No 0.000 No Precipitation 03/20/2019 08:29 PM 03/20/2019 08:34 PM 0.000 0.000 0.000 0.000 0.000 Not Reported Not Reported
03/22/2019 04:05 AM 40.10 38.84 37.40 63.50 37.58 89.0 Not Reported 2.01 N 0.00 E 1.34 NE No 0.000 No Precipitation 03/20/2019 08:29 PM 03/20/2019 08:34 PM 0.000 0.000 0.000 0.000 0.000 Not Reported Not Reported
03/22/2019 04:20 AM 39.92 38.66 37.22 63.50 37.58 89.0 Not Reported 0.67 NE 0.89 NE 1.79 N No 0.000 No Precipitation 03/20/2019 08:29 PM 03/20/2019 08:34 PM 0.000 0.000 0.000 0.000 0.000 Not Reported Not Reported
03/22/2019 04:35 AM 40.28 39.02 37.40 63.50 37.58 89.0 Not Reported 0.00 NE 0.67 NE 0.67 NE No 0.000 No Precipitation 03/20/2019 08:29 PM 03/20/2019 08:34 PM 0.000 0.000 0.000 0.000 0.000 Not Reported Not Reported
03/22/2019 04:50 AM 40.46 39.02 37.40 63.50 37.58 89.0 Not Reported 0.00 E 0.00 E 0.67 NE No 0.000 No Precipitation 03/20/2019 08:29 PM 03/20/2019 08:34 PM 0.000 0.000 0.000 0.000 0.000 Not Reported Not Reported
03/22/2019 05:05 AM 40.46 39.02 37.22 63.50 37.58 88.0 Not Reported 0.22 NE 0.67 NE 1.57 N No 0.000 No Precipitation 03/20/2019 08:29 PM 03/20/2019 08:34 PM 0.000 0.000 0.000 0.000 0.000 Not Reported Not Reported
03/22/2019 05:20 AM 40.46 39.02 37.22 63.50 37.58 88.0 Not Reported 0.00 NE 0.00 NE 0.67 E No 0.000 No Precipitation 03/20/2019 08:29 PM 03/20/2019 08:34 PM 0.000 0.000 0.000 0.000 0.000 Not Reported Not Reported
03/22/2019 05:35 AM 40.46 38.84 37.04 63.50 37.58 87.0 Not Reported 0.22 NE 0.00 N 0.00 NE No 0.000 No Precipitation 03/20/2019 08:29 PM 03/20/2019 08:34 PM 0.000 0.000 0.000 0.000 0.000 Not Reported Not Reported
03/22/2019 05:50 AM 40.46 39.02 37.22 63.50 37.58 87.0 Not Reported 0.00 N 0.00 NE 1.12 NE No 0.000 No Precipitation 03/20/2019 08:29 PM 03/20/2019 08:34 PM 0.000 0.000 0.000 0.000 0.000 Not Reported Not Reported
03/22/2019 06:05 AM 40.46 39.02 37.04 63.50 37.58 87.0 Not Reported 0.00 N 0.00 NE 1.57 NE No 0.000 No Precipitation 03/20/2019 08:29 PM 03/20/2019 08:34 PM 0.000 0.000 0.000 0.000 0.000 Not Reported Not Reported
03/22/2019 06:20 AM 40.64 39.02 37.22 63.50 37.58 87.0 Not Reported 0.00 NW 0.00 E 1.34 N No 0.000 No Precipitation 03/20/2019 08:29 PM 03/20/2019 08:34 PM 0.000 0.000 0.000 0.000 0.000 Not Reported Not Reported
03/22/2019 06:35 AM 40.64 39.02 37.22 63.50 37.58 87.0 Not Reported 0.00 E 0.00 E 0.89 NW No 0.000 No Precipitation 03/20/2019 08:29 PM 03/20/2019 08:34 PM 0.000 0.000 0.000 0.000 0.000 Not Reported Not Reported
03/22/2019 06:50 AM 40.82 39.20 37.40 63.50 37.58 87.0 Not Reported 0.00 NE 0.00 NE 1.34 NE No 0.000 No Precipitation 03/20/2019 08:29 PM 03/20/2019 08:34 PM 0.000 0.000 0.000 0.000 0.000 Not Reported Not Reported
03/22/2019 07:05 AM 40.64 39.20 37.22 63.50 37.58 87.0 Not Reported 0.00 N 0.45 NE 1.12 E No 0.000 No Precipitation 03/20/2019 08:29 PM 03/20/2019 08:34 PM 0.000 0.000 0.000 0.000 0.000 Not Reported Not Reported
03/22/2019 07:20 AM 40.82 39.20 37.40 63.50 37.58 87.0 Not Reported 0.00 NE 0.00 NE 0.45 NE No 0.000 No Precipitation 03/20/2019 08:29 PM 03/20/2019 08:34 PM 0.000 0.000 0.000 0.000 0.000 Not Reported Not Reported
03/22/2019 07:35 AM 40.82 39.20 37.40 63.50 37.58 87.0 Not Reported 0.00 N 0.00 NE 0.00 NE No 0.000 No Precipitation 03/20/2019 08:29 PM 03/20/2019 08:34 PM 0.000 0.000 0.000 0.000 0.000 Not Reported Not Reported
03/22/2019 07:50 AM 41.00 39.38 37.58 63.50 37.58 87.0 Not Reported 0.00 NE 0.22 NE 0.67 N No 0.000 No Precipitation 03/20/2019 08:29 PM 03/20/2019 08:34 PM 0.000 0.000 0.000 0.000 0.000 Not Reported Not Reported
03/22/2019 08:05 AM 40.82 39.38 37.58 63.50 37.58 87.0 Not Reported 0.00 N 0.00 NE 1.12 NE No 0.000 No Precipitation 03/20/2019 08:29 PM 03/20/2019 08:34 PM 0.000 0.000 0.000 0.000 0.000 Not Reported Not Reported
03/22/2019 08:20 AM 40.82 39.38 37.76 63.50 37.58 88.0 Not Reported 0.00 N 0.00 E 0.22 E No 0.000 No Precipitation 03/20/2019 08:29 PM 03/20/2019 08:34 PM 0.000 0.000 0.000 0.000 0.000 Not Reported Not Reported
03/22/2019 08:35 AM 41.18 39.56 37.94 63.50 37.58 88.0 Not Reported 0.67 S 0.89 SE 0.67 SE No 0.000 No Precipitation 03/20/2019 08:29 PM 03/20/2019 08:34 PM 0.000 0.000 0.000 0.000 0.000 Not Reported Not Reported
03/22/2019 08:50 AM 41.18 39.74 37.94 63.50 37.58 88.0 Not Reported 0.22 S 0.45 SW 0.67 SE No 0.000 No Precipitation 03/20/2019 08:29 PM 03/20/2019 08:34 PM 0.000 0.000 0.000 0.000 0.000 Not Reported Not Reported
03/22/2019 09:05 AM 41.18 39.92 38.30 63.50 37.58 89.0 Not Reported 0.00 SE 0.00 SE 1.12 SE No 0.000 No Precipitation 03/20/2019 08:29 PM 03/20/2019 08:34 PM 0.000 0.000 0.000 0.000 0.000 Not Reported Not Reported
03/22/2019 09:20 AM 41.18 39.92 38.30 63.50 37.58 89.0 Not Reported 0.00 N 0.00 E 0.45 E No 0.000 No Precipitation 03/20/2019 08:29 PM 03/20/2019 08:34 PM 0.000 0.000 0.000 0.000 0.000 Not Reported Not Reported
03/22/2019 09:35 AM 41.36 39.92 38.48 63.50 37.76 89.0 Not Reported 0.00 N 0.00 NE 0.45 E No 0.000 No Precipitation 03/20/2019 08:29 PM 03/20/2019 08:34 PM 0.000 0.000 0.000 0.000 0.000 Not Reported Not Reported
03/22/2019 09:50 AM 41.72 40.46 39.20 63.50 37.94 90.0 Not Reported 0.00 N 0.00 SE 0.89 SE No 0.000 No Precipitation 03/20/2019 08:29 PM 03/20/2019 08:34 PM 0.000 0.000 0.000 0.000 0.000 Not Reported Not Reported
03/22/2019 10:05 AM 41.90 40.82 39.56 63.50 38.30 91.0 Not Reported 0.00 N 1.34 SW 0.00 SE No 0.000 No Precipitation 03/20/2019 08:29 PM 03/20/2019 08:34 PM 0.000 0.000 0.000 0.000 0.000 Not Reported Not Reported
03/22/2019 10:20 AM 41.90 40.82 39.74 63.50 38.48 92.0 Not Reported 0.00 N 0.00 E 0.00 S No 0.000 No Precipitation 03/22/2019 09:12 AM 03/22/2019 09:17 AM 0.008 0.008 0.008 0.008 0.008 Not Reported Not Reported
03/22/2019 10:35 AM 42.26 41.36 40.28 63.50 38.48 92.0 Not Reported 0.00 N 0.00 E 0.00 E No 0.000 No Precipitation 03/22/2019 09:23 AM 03/22/2019 09:28 AM 0.008 0.008 0.008 0.008 0.008 Not Reported Not Reported
03/22/2019 10:50 AM 42.80 41.90 41.00 63.50 38.48 92.0 Not Reported 0.67 SE 0.89 SW 1.12 S No 0.000 No Precipitation 03/22/2019 09:42 AM 03/22/2019 09:47 AM 0.016 0.016 0.016 0.016 0.016 Not Reported Not Reported
03/22/2019 11:05 AM 43.70 42.80 41.90 63.50 38.48 93.0 Not Reported 2.24 S 1.57 SE 3.13 S No 0.000 No Precipitation 03/22/2019 09:58 AM 03/22/2019 10:03 AM 0.020 0.020 0.020 0.020 0.020 Not Reported Not Reported
03/22/2019 11:20 AM 43.70 42.80 42.08 63.50 38.48 93.0 Not Reported 2.24 S 1.79 S 2.91 S Yes 0.003 Rain Slight 03/22/2019 10:09 AM   0.028 0.035 0.035 0.035 0.035 Not Reported Not Reported
03/22/2019 11:35 AM 44.06 43.16 42.44 63.50 38.48 93.0 Not Reported 1.34 SE 0.22 SE 3.80 S No 0.000 No Precipitation 03/22/2019 10:30 AM 03/22/2019 10:35 AM 0.031 0.039 0.039 0.039 0.039 Not Reported Not Reported
03/22/2019 11:50 AM 44.24 43.52 42.62 63.50 38.48 93.0 Not Reported 0.45 S 0.22 E 2.68 SW No 0.000 No Precipitation 03/22/2019 10:39 AM 03/22/2019 10:44 AM 0.031 0.043 0.043 0.043 0.043 Not Reported Not Reported
03/22/2019 12:05 PM 43.88 43.16 42.26 63.50 38.48 93.0 Not Reported 2.46 SE 2.01 SE 4.92 SW No 0.000 No Precipitation 03/22/2019 10:58 AM 03/22/2019 11:03 AM 0.028 0.051 0.051 0.051 0.051 Not Reported Not Reported
03/22/2019 12:20 PM 44.42 43.52 42.62 63.50 38.48 93.0 Not Reported 1.57 SE 0.89 S 4.03 S No 0.000 No Precipitation 03/22/2019 11:14 AM 03/22/2019 11:19 AM 0.020 0.055 0.055 0.055 0.055 Not Reported Not Reported
03/22/2019 12:35 PM 44.42 43.70 42.80 63.50 38.48 93.0 Not Reported 1.12 SE 2.01 S 2.68 S Yes 0.003 Rain Slight 03/22/2019 11:35 AM   0.020 0.063 0.063 0.063 0.063 Not Reported Not Reported
03/22/2019 12:50 PM 43.88 42.98 42.26 63.50 38.48 93.0 Not Reported 3.13 S 3.36 S 4.92 SE Yes 0.003 Rain Slight 03/22/2019 11:49 AM   0.020 0.071 0.071 0.071 0.071 Not Reported Not Reported
03/22/2019 01:05 PM 44.06 43.16 42.44 63.50 38.48 93.0 Not Reported 2.24 SE 2.01 SE 3.36 SE Yes 0.003 Rain Slight 03/22/2019 11:49 AM   0.031 0.083 0.083 0.083 0.083 Not Reported Not Reported
03/22/2019 01:20 PM 43.70 42.98 42.08 63.50 38.48 93.0 Not Reported 1.12 SE 1.57 SE 3.58 S No 0.000 No Precipitation 03/22/2019 12:15 PM 03/22/2019 12:20 PM 0.035 0.083 0.091 0.091 0.091 Not Reported Not Reported
03/22/2019 01:35 PM 43.16 42.44 41.54 63.50 38.48 93.0 Not Reported 1.57 SE 0.22 SE 4.03 SE Yes 0.006 Rain Moderate 03/22/2019 12:26 PM   0.039 0.091 0.102 0.102 0.102 Not Reported Not Reported
03/22/2019 01:50 PM 44.06 43.16 42.44 63.50 38.48 94.0 Not Reported 0.22 SE 0.45 SE 3.13 S Yes 0.003 Rain Slight 03/22/2019 12:48 PM   0.039 0.098 0.110 0.110 0.110 Not Reported Not Reported
03/22/2019 02:05 PM 44.06 43.34 42.44 63.50 38.48 94.0 Not Reported 1.34 E 0.67 SE 4.47 S Yes 0.003 Rain Slight 03/22/2019 12:48 PM   0.039 0.102 0.126 0.126 0.126 Not Reported Not Reported
03/22/2019 02:20 PM 43.70 42.80 42.08 63.50 38.48 93.0 Not Reported 0.67 SE 0.45 SE 1.57 SE Yes 0.003 Rain Slight 03/22/2019 01:16 PM   0.039 0.098 0.134 0.134 0.134 Not Reported Not Reported
03/22/2019 02:35 PM 43.52 42.62 41.90 63.50 38.48 94.0 Not Reported 0.00 N 0.67 S 1.79 SE Yes 0.003 Rain Slight 03/22/2019 01:30 PM   0.035 0.098 0.142 0.142 0.142 Not Reported Not Reported
03/22/2019 02:50 PM 43.70 42.98 42.26 63.50 38.48 94.0 Not Reported 0.22 SE 0.67 SE 2.91 SW Yes 0.006 Rain Moderate 03/22/2019 01:38 PM   0.039 0.110 0.157 0.157 0.157 Not Reported Not Reported
03/22/2019 03:05 PM 43.70 42.98 42.08 63.50 38.48 94.0 Not Reported 0.45 S 0.00 E 2.24 S Yes 0.006 Rain Moderate 03/22/2019 01:57 PM   0.043 0.122 0.169 0.169 0.169 Not Reported Not Reported
03/22/2019 03:20 PM 43.16 42.26 41.54 63.50 38.48 93.0 Not Reported 2.46 S 2.46 S 3.13 SW No 0.000 No Precipitation 03/22/2019 02:15 PM 03/22/2019 02:20 PM 0.043 0.126 0.181 0.181 0.181 Not Reported Not Reported
03/22/2019 03:35 PM 43.52 42.80 41.90 63.50 38.48 93.0 Not Reported 0.89 S 0.89 SW 2.01 SW Yes 0.003 Rain Slight 03/22/2019 02:22 PM   0.055 0.134 0.197 0.197 0.197 Not Reported Not Reported
03/22/2019 03:50 PM 43.16 42.44 41.54 63.50 38.48 93.0 Not Reported 0.00 N 0.00 E 0.67 SW No 0.000 No Precipitation 03/22/2019 02:22 PM 03/22/2019 02:49 PM 0.055 0.142 0.209 0.209 0.209 Not Reported Not Reported
03/22/2019 04:05 PM 43.16 42.44 41.54 63.50 38.48 94.0 Not Reported 0.00 N 0.89 S 1.12 SE Yes 0.003 Rain Slight 03/22/2019 03:02 PM   0.043 0.138 0.220 0.220 0.220 Not Reported Not Reported
03/22/2019 04:20 PM 42.98 42.08 41.36 63.50 38.48 94.0 Not Reported 2.46 S 2.24 SE 3.36 S Yes 0.003 Rain Slight 03/22/2019 03:19 PM   0.039 0.134 0.217 0.224 0.224 Not Reported Not Reported
03/22/2019 04:35 PM 42.26 41.54 40.64 63.50 38.48 93.0 Not Reported 2.24 S 2.68 W 4.03 S Yes 0.003 Rain Slight 03/22/2019 03:19 PM   0.039 0.134 0.224 0.240 0.240 Not Reported Not Reported
03/22/2019 04:50 PM 42.62 41.90 41.00 63.50 38.48 93.0 Not Reported 0.45 SE 0.22 E 1.34 SE Yes 0.003 Rain Slight 03/22/2019 03:19 PM   0.039 0.142 0.240 0.256 0.256 Not Reported Not Reported
03/22/2019 05:05 PM 42.44 41.54 40.82 63.32 38.48 93.0 Not Reported 1.12 S 1.57 SE 1.57 SE No 0.000 No Precipitation 03/22/2019 03:59 PM 03/22/2019 04:04 PM 0.039 0.134 0.236 0.260 0.260 Not Reported Not Reported
03/22/2019 05:20 PM 41.90 41.18 40.46 63.32 38.48 94.0 Not Reported 0.00 SW 0.00 NE 0.89 S Yes 0.006 Rain Moderate 03/22/2019 04:08 PM   0.051 0.142 0.240 0.276 0.276 Not Reported Not Reported
03/22/2019 05:35 PM 41.90 41.18 40.46 62.24 38.48 94.0 Not Reported 0.67 NE 0.00 NE 1.12 NW Yes 0.013 Rain Moderate 03/22/2019 04:08 PM   0.075 0.169 0.272 0.315 0.315 Not Reported Not Reported
03/22/2019 05:50 PM 41.72 41.00 40.28 61.88 38.48 94.0 Not Reported 0.89 N 0.89 N 2.01 NE Yes 0.003 Rain Slight 03/22/2019 04:48 PM   0.067 0.165 0.276 0.323 0.323 Not Reported Not Reported
03/22/2019 06:05 PM 41.90 41.18 40.46 61.52 38.48 94.0 Not Reported 0.45 E 0.00 NE 2.01 NE No 0.000 No Precipitation 03/22/2019 04:48 PM 03/22/2019 05:04 PM 0.075 0.161 0.283 0.335 0.335 Not Reported Not Reported
03/22/2019 06:20 PM 41.90 41.18 40.46 61.34 38.48 94.0 Not Reported 0.00 N 0.00 SE 0.67 NE Yes 0.003 Rain Slight 03/22/2019 05:17 PM   0.067 0.161 0.287 0.343 0.343 Not Reported Not Reported
03/22/2019 06:35 PM 41.90 41.18 40.46 58.46 38.48 94.0 Not Reported 0.67 NW 0.45 N 1.79 NE No 0.000 No Precipitation 03/22/2019 05:26 PM 03/22/2019 05:31 PM 0.031 0.150 0.283 0.343 0.343 Not Reported Not Reported
03/22/2019 06:50 PM 41.54 40.82 40.10 57.02 38.48 94.0 Not Reported 0.89 N 1.12 NW 1.79 NE No 0.000 No Precipitation 03/22/2019 05:38 PM 03/22/2019 05:43 PM 0.028 0.138 0.280 0.350 0.350 Not Reported Not Reported
03/22/2019 07:05 PM 41.36 40.46 39.74 55.94 38.48 94.0 Not Reported 0.22 NE 0.00 E 0.89 NE No 0.000 No Precipitation 03/22/2019 05:38 PM 03/22/2019 05:43 PM 0.016 0.130 0.268 0.350 0.350 Not Reported Not Reported
03/22/2019 07:20 PM 40.64 39.92 39.20 54.68 38.48 94.0 Not Reported 0.00 N 0.00 E 0.67 E Yes 0.003 Rain Slight 03/22/2019 06:17 PM   0.016 0.134 0.268 0.354 0.354 Not Reported Not Reported
03/22/2019 07:35 PM 41.18 40.46 39.74 52.52 38.48 94.0 Not Reported 0.00 NE 0.00 NE 1.12 NE Yes 0.003 Rain Slight 03/22/2019 06:33 PM   0.020 0.126 0.260 0.362 0.362 Not Reported Not Reported
03/22/2019 07:50 PM 40.82 40.28 39.38 50.90 38.48 94.0 Not Reported 0.00 N 0.00 SE 1.12 NE Yes 0.006 Rain Moderate 03/22/2019 06:46 PM   0.028 0.122 0.264 0.374 0.374 Not Reported Not Reported
03/22/2019 08:05 PM 40.82 40.10 39.38 49.28 38.48 94.0 Not Reported 0.00 N 0.00 SE 0.00 SE Yes 0.006 Rain Moderate 03/22/2019 07:02 PM   0.039 0.134 0.268 0.394 0.394 Not Reported Not Reported
03/22/2019 08:20 PM 40.64 39.92 39.38 48.74 38.48 94.0 Not Reported 0.00 N 0.22 NE 0.67 NE Yes 0.003 Rain Slight 03/22/2019 07:17 PM   0.039 0.122 0.264 0.394 0.394 Not Reported Not Reported
03/22/2019 08:35 PM 40.64 39.92 39.20 47.12 38.48 94.0 Not Reported 0.00 N 0.00 E 1.34 N No 0.000 No Precipitation 03/22/2019 07:17 PM 03/22/2019 07:22 PM 0.031 0.083 0.256 0.394 0.394 Not Reported Not Reported
03/22/2019 08:50 PM 40.64 39.92 39.20 46.04 38.48 94.0 Not Reported 0.00 N 0.00 S 0.00 E Yes 0.003 Rain Slight 03/22/2019 07:47 PM   0.028 0.083 0.244 0.402 0.402 Not Reported Not Reported
03/22/2019 09:05 PM 40.64 39.92 39.20 45.14 38.48 94.0 Not Reported 0.00 N 0.00 SE 0.00 SW Yes 0.003 Rain Slight 03/22/2019 08:03 PM   0.020 0.079 0.240 0.413 0.413 Not Reported Not Reported
03/22/2019 09:20 PM 40.46 39.92 39.20 44.60 38.48 94.0 Not Reported 0.00 N 0.00 SE 0.00 SE No 0.000 No Precipitation 03/22/2019 08:12 PM 03/22/2019 08:17 PM 0.020 0.075 0.236 0.413 0.413 Not Reported Not Reported
03/22/2019 09:35 PM 40.82 40.10 39.38 44.60 38.48 94.0 Not Reported 0.00 N 0.00 NE 0.45 SE No 0.000 No Precipitation 03/22/2019 08:25 PM 03/22/2019 08:30 PM 0.020 0.075 0.224 0.421 0.421 Not Reported Not Reported
03/22/2019 09:50 PM 40.82 40.10 39.38 44.60 38.48 95.0 Not Reported 0.22 N 0.00 N 1.79 N No 0.000 No Precipitation 03/22/2019 08:43 PM 03/22/2019 08:48 PM 0.020 0.075 0.209 0.421 0.421 Not Reported Not Reported
03/22/2019 10:05 PM 40.82 40.10 39.38 44.60 38.48 95.0 Not Reported 1.79 N 0.89 NE 0.45 N No 0.000 No Precipitation 03/22/2019 08:43 PM 03/22/2019 08:48 PM 0.008 0.075 0.205 0.421 0.421 Not Reported Not Reported
03/22/2019 10:20 PM 40.46 39.92 39.20 44.60 38.48 95.0 Not Reported 0.67 N 0.89 N 1.57 N No 0.000 No Precipitation 03/22/2019 08:43 PM 03/22/2019 08:48 PM 0.008 0.067 0.201 0.413 0.421 Not Reported Not Reported
03/22/2019 10:35 PM 40.46 39.74 39.02 44.60 38.48 95.0 Not Reported 0.00 N 0.67 N 1.57 N No 0.000 No Precipitation 03/22/2019 09:23 PM 03/22/2019 09:28 PM 0.008 0.063 0.185 0.413 0.429 Not Reported Not Reported
03/22/2019 10:50 PM 40.46 39.74 39.20 44.60 38.48 95.0 Not Reported 0.00 NE 0.00 W 1.12 N No 0.000 No Precipitation 03/22/2019 09:45 PM 03/22/2019 09:50 PM 0.008 0.055 0.177 0.413 0.433 Not Reported Not Reported
03/22/2019 11:05 PM 40.28 39.74 39.02 44.60 38.48 95.0 Not Reported 0.45 NW 0.00 N 1.79 N No 0.000 No Precipitation 03/22/2019 09:45 PM 03/22/2019 09:50 PM 0.008 0.039 0.169 0.409 0.433 Not Reported Not Reported
03/22/2019 11:20 PM 40.28 39.74 39.02 44.60 38.48 95.0 Not Reported 0.22 NW 0.22 NW 0.89 N No 0.000 No Precipitation 03/22/2019 09:45 PM 03/22/2019 09:50 PM 0.008 0.035 0.157 0.394 0.433 Not Reported Not Reported
03/22/2019 11:35 PM 40.10 39.56 38.84 44.60 38.48 95.0 Not Reported 0.89 N 0.22 NW 0.89 N No 0.000 No Precipitation 03/22/2019 09:45 PM 03/22/2019 09:50 PM 0.004 0.035 0.118 0.390 0.433 Not Reported Not Reported
03/22/2019 11:50 PM 40.28 39.56 39.02 44.60 38.48 95.0 Not Reported 0.00 N 0.00 NE 1.34 N No 0.000 No Precipitation 03/22/2019 09:45 PM 03/22/2019 09:50 PM 0.000 0.028 0.110 0.382 0.433 Not Reported Not Reported